Time;durP1;ratioP1;P1;durP2;ratioP2;P2;SDS_P1;SDS_P2;PMS_P1;PMS_P2;Temp;Humidity;BMP_temperature;BMP_pressure;BME280_temperature;BME280_humidity;BME280_pressure;Samples;Min_cycle;Max_cycle;Signal;HPM_P1;HPM_P2
2021/03/22 00:01:03;;;;;;;22.33;19.50;;;;;;;21.75;40.00;100193.28;2048476;29;20037;-67
2021/03/22 00:02:05;;;;;;;22.77;20.27;;;;;;;21.74;39.58;100186.09;2054706;28;20019;-67
2021/03/22 00:03:07;;;;;;;24.30;18.90;;;;;;;21.75;39.84;100190.53;2056220;28;20046;-66
2021/03/22 00:04:35;;;;;;;21.67;18.67;;;;;;;21.74;39.71;100191.56;2055783;28;20395;-66
2021/03/22 00:05:36;;;;;;;20.02;17.80;;;;;;;21.75;39.67;100190.53;2054162;28;20098;-66
2021/03/22 00:06:36;;;;;;;22.53;19.03;;;;;;;21.77;39.67;100184.91;2055913;28;20022;-66
2021/03/22 00:07:37;;;;;;;21.57;18.47;;;;;;;21.78;39.83;100187.50;2062784;28;20093;-66
2021/03/22 00:08:37;;;;;;;21.53;18.27;;;;;;;21.77;39.97;100185.75;2060094;28;20036;-66
2021/03/22 00:09:38;;;;;;;21.60;18.30;;;;;;;21.76;39.89;100184.03;2063866;28;20049;-66
2021/03/22 00:10:42;;;;;;;20.23;18.07;;;;;;;21.77;39.89;100176.66;2057647;28;20102;-66
2021/03/22 00:11:42;;;;;;;20.50;17.90;;;;;;;21.77;39.81;100174.78;2056063;28;20034;-66
2021/03/22 00:12:43;;;;;;;19.80;17.40;;;;;;;21.76;39.83;100184.03;2054204;28;20026;-66
2021/03/22 00:13:43;;;;;;;19.67;16.87;;;;;;;21.78;39.71;100189.38;2057864;28;20065;-66
2021/03/22 00:14:44;;;;;;;19.60;17.50;;;;;;;21.76;40.02;100183.19;2056863;28;20077;-66
2021/03/22 00:15:45;;;;;;;19.53;17.43;;;;;;;21.75;40.02;100187.78;2055817;28;20058;-67
2021/03/22 00:16:46;;;;;;;19.63;17.40;;;;;;;21.77;39.67;100185.75;2055999;28;20026;-66
2021/03/22 00:17:47;;;;;;;19.83;17.15;;;;;;;21.77;40.05;100184.91;2055199;28;20054;-66
2021/03/22 00:18:54;;;;;;;21.10;17.93;;;;;;;21.75;39.85;100185.03;2055333;28;20067;-66
2021/03/22 00:19:54;;;;;;;19.80;17.48;;;;;;;21.75;40.01;100181.44;2054874;28;20592;-66
2021/03/22 00:20:55;;;;;;;23.90;18.90;;;;;;;21.76;39.90;100185.94;2055770;28;20424;-66
2021/03/22 00:21:55;;;;;;;21.63;19.03;;;;;;;21.74;39.93;100187.97;2052422;28;20034;-66
2021/03/22 00:22:56;;;;;;;20.20;17.70;;;;;;;21.74;40.01;100191.56;2055072;28;20379;-66
2021/03/22 00:24:02;;;;;;;19.37;17.27;;;;;;;21.74;39.87;100191.56;2054060;28;20026;-66
2021/03/22 00:25:05;;;;;;;20.60;18.23;;;;;;;21.76;39.98;100185.94;2060315;28;20067;-66
2021/03/22 00:26:06;;;;;;;20.05;17.15;;;;;;;21.74;40.07;100191.56;2057773;28;20106;-66
2021/03/22 00:27:07;;;;;;;19.08;17.00;;;;;;;21.74;40.14;100191.56;2059861;28;20035;-66
2021/03/22 00:28:10;;;;;;;18.67;16.63;;;;;;;21.73;39.92;100188.97;2054477;28;20070;-66
2021/03/22 00:29:10;;;;;;;20.92;16.65;;;;;;;21.72;40.15;100196.34;2055724;28;20274;-66
2021/03/22 00:30:17;;;;;;;19.00;16.43;;;;;;;21.72;39.88;100192.75;2051395;28;20054;-67
2021/03/22 00:31:18;;;;;;;21.00;17.65;;;;;;;21.73;40.02;100195.34;2055416;28;20043;-67
2021/03/22 00:32:18;;;;;;;21.60;17.87;;;;;;;21.72;40.07;100193.63;2055857;28;20042;-66
2021/03/22 00:33:20;;;;;;;19.07;17.13;;;;;;;21.72;40.21;100201.00;2056023;28;20026;-67
2021/03/22 00:34:21;;;;;;;18.77;16.70;;;;;;;21.71;39.89;100197.41;2055075;28;20141;-66
2021/03/22 00:35:22;;;;;;;20.00;17.60;;;;;;;21.71;39.95;100197.41;2055747;28;20031;-66
2021/03/22 00:36:22;;;;;;;19.90;17.25;;;;;;;21.70;39.94;100203.88;2054329;28;20031;-66
2021/03/22 00:37:23;;;;;;;19.30;16.10;;;;;;;21.70;40.16;100206.63;2052323;28;20569;-66
2021/03/22 00:38:23;;;;;;;21.13;17.20;;;;;;;21.69;40.07;100193.94;2054972;28;20031;-66
2021/03/22 00:39:24;;;;;;;20.30;17.20;;;;;;;21.68;40.17;100205.97;2052784;28;20069;-66
2021/03/22 00:40:28;;;;;;;19.87;17.00;;;;;;;21.68;40.19;100197.72;2054353;28;20033;-66
2021/03/22 00:41:29;;;;;;;19.05;15.88;;;;;;;21.68;40.05;100203.22;2055380;28;20023;-66
2021/03/22 00:42:29;;;;;;;17.87;16.00;;;;;;;21.68;40.07;100202.34;2055871;28;20035;-66
2021/03/22 00:43:30;;;;;;;18.33;15.60;;;;;;;21.67;40.00;100195.16;2048519;28;20043;-67
2021/03/22 00:44:31;;;;;;;17.57;15.67;;;;;;;21.66;40.28;100196.19;2055819;28;20110;-67
2021/03/22 00:45:31;;;;;;;18.63;15.73;;;;;;;21.66;40.15;100194.28;2055466;28;20469;-66
2021/03/22 00:46:32;;;;;;;18.53;16.03;;;;;;;21.64;40.38;100193.59;2055702;28;20178;-66
2021/03/22 00:47:33;;;;;;;19.73;16.35;;;;;;;21.64;40.38;100192.75;2053236;28;20069;-66
2021/03/22 00:48:35;;;;;;;17.95;16.05;;;;;;;21.62;40.40;100193.75;2056390;28;20160;-66
2021/03/22 00:49:36;;;;;;;18.08;15.77;;;;;;;21.62;40.50;100182.78;2057490;28;20035;-66
2021/03/22 00:50:39;;;;;;;18.27;16.27;;;;;;;21.61;40.26;100194.78;2052420;28;20027;-66
2021/03/22 00:51:40;;;;;;;18.17;16.17;;;;;;;21.60;40.54;100189.44;2057088;28;20029;-66
2021/03/22 00:52:40;;;;;;;17.73;15.47;;;;;;;21.61;40.40;100191.19;2055655;28;20029;-66
2021/03/22 00:53:40;;;;;;;18.53;16.47;;;;;;;21.60;40.24;100193.03;2055973;28;20163;-67
2021/03/22 00:54:41;;;;;;;21.07;17.07;;;;;;;21.60;40.31;100190.31;2057247;28;20516;-66
2021/03/22 00:55:42;;;;;;;17.33;15.27;;;;;;;21.60;40.56;100194.94;2065063;28;20030;-66
2021/03/22 00:56:43;;;;;;;18.33;16.25;;;;;;;21.60;40.27;100192.19;2064199;28;20393;-67
2021/03/22 00:57:43;;;;;;;17.00;15.20;;;;;;;21.59;40.50;100193.22;2052331;28;20477;-66
2021/03/22 00:58:44;;;;;;;20.17;16.87;;;;;;;21.59;40.59;100190.47;2052585;28;20079;-66
2021/03/22 00:59:44;;;;;;;16.27;14.57;;;;;;;21.59;40.34;100190.47;2053658;28;20369;-66
2021/03/22 01:00:48;;;;;;;17.70;15.17;;;;;;;21.58;40.54;100186.00;2057260;28;20026;-66
2021/03/22 01:01:49;;;;;;;16.92;14.80;;;;;;;21.57;40.57;100184.28;2056866;28;20034;-66
2021/03/22 01:02:52;;;;;;;17.47;14.80;;;;;;;21.56;40.52;100183.44;2057020;28;20023;-66
2021/03/22 01:03:52;;;;;;;18.30;15.88;;;;;;;21.56;40.42;100182.59;2057539;28;20015;-67
2021/03/22 01:04:53;;;;;;;17.53;15.43;;;;;;;21.56;40.40;100177.09;2058856;28;20023;-66
2021/03/22 01:05:54;;;;;;;17.80;15.87;;;;;;;21.54;40.44;100174.50;2062036;28;20485;-66
2021/03/22 01:06:54;;;;;;;17.35;15.00;;;;;;;21.55;40.59;100172.63;2052454;28;20106;-66
2021/03/22 01:07:55;;;;;;;16.40;14.67;;;;;;;21.52;40.45;100181.19;2057145;28;20030;-66
2021/03/22 01:08:55;;;;;;;17.10;14.93;;;;;;;21.53;40.55;100171.94;2057584;28;20382;-66
2021/03/22 01:09:56;;;;;;;17.80;15.83;;;;;;;21.51;40.66;100172.09;2057364;28;20494;-67
2021/03/22 01:11:02;;;;;;;16.63;14.90;;;;;;;21.52;40.66;100172.97;2057047;28;20073;-67
2021/03/22 01:12:03;;;;;;;17.60;15.55;;;;;;;21.51;40.84;100168.47;2056274;28;20022;-66
2021/03/22 01:13:08;;;;;;;16.23;14.05;;;;;;;21.48;40.73;100158.69;2053382;28;20473;-67
2021/03/22 01:14:09;;;;;;;18.00;14.50;;;;;;;21.49;40.68;100159.59;2057015;28;20051;-67
2021/03/22 01:15:10;;;;;;;16.43;13.77;;;;;;;21.48;40.75;100163.31;2056571;28;20019;-67
2021/03/22 01:16:12;;;;;;;16.13;14.43;;;;;;;21.47;40.82;100161.63;2056791;28;20037;-66
2021/03/22 01:17:12;;;;;;;16.52;14.10;;;;;;;21.49;40.60;100167.81;2057421;28;20027;-66
2021/03/22 01:18:14;;;;;;;17.60;14.67;;;;;;;21.47;40.87;100167.09;2057799;28;20019;-66
2021/03/22 01:19:22;;;;;;;16.27;14.57;;;;;;;21.46;40.81;100160.78;2056182;28;20489;-66
2021/03/22 01:20:34;;;;;;;15.23;13.02;;;;;;;21.49;40.91;100162.31;2057020;28;20034;-66
2021/03/22 01:21:37;;;;;;;16.92;14.15;;;;;;;21.48;40.93;100168.81;2055032;28;20081;-66
2021/03/22 01:22:37;;;;;;;21.52;15.85;;;;;;;21.45;40.91;100160.94;2056768;28;20031;-66
2021/03/22 01:23:38;;;;;;;16.90;14.40;;;;;;;21.45;40.81;100152.69;2057020;28;20034;-67
2021/03/22 01:24:38;;;;;;;16.67;14.87;;;;;;;21.45;41.03;100155.44;2054742;28;20038;-67
2021/03/22 01:25:39;;;;;;;16.43;13.07;;;;;;;21.45;40.98;100152.69;2057216;28;20132;-67
2021/03/22 01:26:40;;;;;;;17.55;13.63;;;;;;;21.45;40.97;100155.44;2056830;28;20082;-67
2021/03/22 01:27:41;;;;;;;16.60;13.88;;;;;;;21.44;40.97;100156.47;2056049;28;20085;-67
2021/03/22 01:28:41;;;;;;;16.80;13.77;;;;;;;21.42;40.83;100153.88;2057139;28;20089;-67
2021/03/22 01:29:42;;;;;;;17.97;15.73;;;;;;;21.41;41.04;100163.13;2055837;28;20027;-66
2021/03/22 01:30:50;;;;;;;15.93;13.40;;;;;;;21.42;40.83;100161.25;2049185;28;20039;-66
2021/03/22 01:31:54;;;;;;;15.73;14.13;;;;;;;21.43;40.97;100160.22;2048175;28;20534;-66
2021/03/22 01:32:56;;;;;;;14.90;13.25;;;;;;;21.40;41.12;100159.53;2054450;28;20030;-66
2021/03/22 01:33:56;;;;;;;15.68;13.98;;;;;;;21.42;41.06;100164.00;2061010;28;20037;-66
2021/03/22 01:34:57;;;;;;;17.67;14.60;;;;;;;21.40;40.92;100162.25;2057016;28;20045;-67
2021/03/22 01:36:47;;;;;;;15.67;13.43;;;;;;;21.40;40.93;100170.50;2054052;28;20482;-66
2021/03/22 01:37:47;;;;;;;16.55;14.20;;;;;;;21.40;40.78;100165.00;2050459;28;20530;-66
2021/03/22 01:38:49;;;;;;;15.77;13.23;;;;;;;21.37;40.86;100162.56;2056474;28;21025;-66
2021/03/22 01:39:49;;;;;;;15.43;13.70;;;;;;;21.38;41.17;100167.00;2053379;28;20117;-66
2021/03/22 01:41:08;;;;;;;18.17;13.50;;;;;;;21.38;40.90;100168.91;2056935;28;20049;-66
2021/03/22 01:42:56;;;;;;;15.18;13.40;;;;;;;21.36;41.00;100171.81;2056254;28;20042;-66
2021/03/22 01:43:59;;;;;;;16.55;13.48;;;;;;;21.35;41.13;100164.59;2054213;28;20059;-66
2021/03/22 01:45:04;;;;;;;17.30;14.30;;;;;;;21.34;41.03;100173.88;2056125;28;20122;-66
2021/03/22 01:46:05;;;;;;;15.15;13.52;;;;;;;21.34;41.12;100165.66;2055042;28;20026;-66
2021/03/22 01:47:22;;;;;;;16.58;14.30;;;;;;;21.34;41.36;100173.00;2056517;28;20022;-66
2021/03/22 01:48:23;;;;;;;14.80;13.20;;;;;;;21.34;41.33;100173.00;2058292;28;20050;-66
2021/03/22 01:49:28;;;;;;;14.67;13.17;;;;;;;21.34;41.10;100160.16;2056854;28;20454;-66
2021/03/22 01:50:31;;;;;;;15.85;13.65;;;;;;;21.34;41.01;100160.16;2052536;28;20170;-66
2021/03/22 01:51:34;;;;;;;14.00;12.48;;;;;;;21.32;41.10;100159.47;2056675;28;20054;-66
2021/03/22 01:52:38;;;;;;;16.40;13.43;;;;;;;21.32;41.38;100159.47;2058223;28;20034;-66
2021/03/22 01:53:39;;;;;;;15.98;13.25;;;;;;;21.32;41.34;100162.19;2056668;28;20113;-66
2021/03/22 01:54:40;;;;;;;15.37;13.33;;;;;;;21.33;41.26;100171.28;2055996;28;20046;-66
2021/03/22 01:55:40;;;;;;;15.77;13.47;;;;;;;21.31;41.31;100160.50;2057256;28;20109;-66
2021/03/22 01:56:47;;;;;;;14.73;12.87;;;;;;;21.30;41.08;100156.00;2055083;28;20030;-66
2021/03/22 01:57:47;;;;;;;15.20;13.68;;;;;;;21.30;41.12;100150.53;2056422;28;20034;-66
2021/03/22 01:58:48;;;;;;;14.63;12.73;;;;;;;21.30;41.24;100150.53;2056348;28;20058;-66
2021/03/22 01:59:50;;;;;;;17.00;13.70;;;;;;;21.29;41.29;100164.38;2054362;28;20430;-66
2021/03/22 02:00:51;;;;;;;14.65;13.18;;;;;;;21.28;41.17;100155.31;2056281;28;20409;-67
2021/03/22 02:01:56;;;;;;;14.40;12.90;;;;;;;21.28;41.35;100147.09;2054788;28;20041;-66
2021/03/22 02:03:13;;;;;;;14.80;12.73;;;;;;;21.28;41.32;100147.09;2056768;28;20069;-66
2021/03/22 02:04:15;;;;;;;14.77;12.85;;;;;;;21.27;41.26;100139.91;2049040;28;20105;-66
2021/03/22 02:05:20;;;;;;;;;;;;;;;21.26;41.21;100143.66;2054637;28;20511;-66
2021/03/22 02:06:22;;;;;;;16.35;13.30;;;;;;;21.26;41.29;100135.41;2056748;28;19928;-66
2021/03/22 02:07:22;;;;;;;14.65;13.15;;;;;;;21.25;41.37;100125.50;2057860;28;20116;-66
2021/03/22 02:08:51;;;;;;;15.00;12.23;;;;;;;21.24;41.23;100131.13;2052017;28;20035;-66
2021/03/22 02:09:51;;;;;;;15.98;13.52;;;;;;;21.23;41.31;100130.28;2049565;28;20043;-66
2021/03/22 02:10:52;;;;;;;14.53;12.97;;;;;;;21.23;41.37;100126.69;2053355;28;20110;-66
2021/03/22 02:11:52;;;;;;;15.70;13.73;;;;;;;21.23;41.41;100126.69;2053514;28;20023;-66
2021/03/22 02:12:53;;;;;;;15.13;12.33;;;;;;;21.22;41.42;100122.22;2057015;28;20030;-66
2021/03/22 02:13:57;;;;;;;14.27;12.73;;;;;;;21.21;41.22;100118.59;2053160;28;20037;-67
2021/03/22 02:14:57;;;;;;;15.48;13.63;;;;;;;21.20;41.31;100127.88;2056640;28;20026;-66
2021/03/22 02:16:33;;;;;;;16.97;13.70;;;;;;;21.20;41.49;100125.97;2056055;28;20081;-66
2021/03/22 02:17:43;;;;;;;14.63;12.35;;;;;;;21.22;41.29;100122.22;2051917;28;20060;-66
2021/03/22 02:18:55;;;;;;;13.05;11.55;;;;;;;21.20;41.27;100128.72;2054881;28;20551;-66
2021/03/22 02:20:20;;;;;;;14.48;12.98;;;;;;;21.19;41.27;100126.13;2055167;28;20031;-66
2021/03/22 02:21:45;;;;;;;14.10;11.63;;;;;;;21.19;41.35;100123.38;2055651;28;20129;-66
2021/03/22 02:23:03;;;;;;;16.33;12.48;;;;;;;21.20;41.36;100122.38;2054874;28;20031;-66
2021/03/22 02:24:45;;;;;;;15.50;13.10;;;;;;;21.17;41.56;100126.31;2050389;28;20038;-67
2021/03/22 02:26:05;;;;;;;13.82;11.95;;;;;;;21.16;41.30;100120.97;2052637;28;20122;-67
2021/03/22 02:27:43;;;;;;;13.68;11.43;;;;;;;21.15;41.53;100125.59;2055465;28;20023;-66
2021/03/22 02:29:02;;;;;;;14.77;11.98;;;;;;;21.15;41.58;100116.53;2054730;28;20035;-66
2021/03/22 02:30:15;;;;;;;12.90;11.57;;;;;;;21.14;41.68;100128.50;2054986;28;20027;-66
2021/03/22 02:31:18;;;;;;;;;;;;;;;21.15;41.63;100127.50;2053061;28;20038;-66
2021/03/22 02:32:34;;;;;;;13.20;11.70;;;;;;;21.15;41.58;100119.28;2056155;28;19918;-66
2021/03/22 02:33:43;;;;;;;14.15;11.95;;;;;;;21.13;41.39;100121.31;2052945;28;20117;-66
2021/03/22 02:35:17;;;;;;;13.00;11.68;;;;;;;21.12;41.45;100119.59;2051577;28;20031;-66
2021/03/22 02:36:37;;;;;;;13.43;11.65;;;;;;;21.12;41.55;100122.34;2047267;28;20039;-66
2021/03/22 02:38:07;;;;;;;14.38;12.07;;;;;;;21.11;41.62;100112.38;2054605;28;20094;-66
2021/03/22 02:39:08;;;;;;;13.10;10.95;;;;;;;21.10;41.48;100105.19;2055892;28;20034;-66
2021/03/22 02:40:37;;;;;;;13.40;12.00;;;;;;;21.09;41.68;100114.41;2059786;28;20037;-66
2021/03/22 02:41:58;;;;;;;13.45;11.93;;;;;;;21.09;41.68;100109.81;2055792;28;20109;-66
2021/03/22 02:43:00;;;;;;;13.05;11.30;;;;;;;21.07;41.72;100106.38;2060500;28;20046;-66
2021/03/22 02:44:06;;;;;;;14.95;11.93;;;;;;;21.08;41.73;100107.25;2054813;28;20027;-66
2021/03/22 02:45:08;;;;;;;13.05;11.65;;;;;;;21.07;41.76;100105.50;2066418;28;20033;-66
2021/03/22 02:46:09;;;;;;;14.63;11.55;;;;;;;21.07;41.58;100105.50;2055495;28;20030;-66
2021/03/22 02:47:20;;;;;;;14.43;12.20;;;;;;;21.07;41.61;100108.25;2053845;28;20042;-66
2021/03/22 02:48:25;;;;;;;13.23;11.82;;;;;;;21.05;41.56;100097.47;2056270;28;20031;-66
2021/03/22 02:49:30;;;;;;;11.20;9.75;;;;;;;21.05;41.78;100104.84;2056178;28;20063;-66
2021/03/22 02:50:35;;;;;;;14.02;11.82;;;;;;;21.05;41.71;100107.56;2054991;28;20037;-66
2021/03/22 02:52:15;;;;;;;12.63;11.32;;;;;;;21.02;41.80;100108.75;2056173;28;20126;-66
2021/03/22 02:53:30;;;;;;;15.95;11.27;;;;;;;21.01;41.60;100101.53;2055831;28;20022;-66
2021/03/22 02:54:42;;;;;;;13.30;11.88;;;;;;;21.01;41.78;100103.44;2056630;28;20165;-66
2021/03/22 02:55:51;;;;;;;13.70;11.48;;;;;;;21.00;41.72;100098.97;2054597;28;20045;-66
2021/03/22 02:57:04;;;;;;;12.73;10.40;;;;;;;20.98;41.74;100094.50;2056379;28;20026;-66
2021/03/22 02:58:08;;;;;;;13.55;11.45;;;;;;;20.97;41.82;100101.03;2057664;28;20022;-66
2021/03/22 02:59:17;;;;;;;12.27;10.98;;;;;;;20.97;41.83;100106.50;2054365;28;20046;-66
2021/03/22 03:00:23;;;;;;;12.95;11.13;;;;;;;20.97;41.68;100103.75;2050485;28;20475;-66
2021/03/22 03:01:38;;;;;;;13.73;11.65;;;;;;;20.96;41.93;100109.38;2056401;28;20030;-66
2021/03/22 03:02:41;;;;;;;15.90;11.13;;;;;;;20.97;41.71;100101.03;2055056;28;20472;-66
2021/03/22 03:03:43;;;;;;;12.43;11.10;;;;;;;20.96;41.89;100114.88;2053869;28;20030;-66
2021/03/22 03:04:44;;;;;;;12.35;10.88;;;;;;;20.94;41.88;100109.53;2056026;28;20141;-66
2021/03/22 03:05:53;;;;;;;11.90;10.60;;;;;;;20.94;42.04;100112.28;2054201;28;20029;-66
2021/03/22 03:06:57;;;;;;;11.70;10.50;;;;;;;20.93;41.96;100105.09;2055158;28;20043;-66
2021/03/22 03:08:00;;;;;;;12.65;10.88;;;;;;;20.92;41.76;100107.97;2063367;28;20645;-66
2021/03/22 03:09:01;;;;;;;11.82;10.63;;;;;;;20.91;42.08;100115.34;2063248;28;20030;-66
2021/03/22 03:10:06;;;;;;;12.87;11.03;;;;;;;20.91;42.10;100117.25;2055539;28;20106;-66
2021/03/22 03:11:07;;;;;;;11.82;10.63;;;;;;;20.90;41.94;100110.06;2055861;28;20034;-66
2021/03/22 03:12:16;;;;;;;12.85;10.55;;;;;;;20.90;42.16;100105.44;2055449;28;20031;-66
2021/03/22 03:13:16;;;;;;;12.45;10.75;;;;;;;20.90;42.07;100112.78;2054746;28;20033;-66
2021/03/22 03:14:18;;;;;;;11.83;10.57;;;;;;;20.89;41.94;100109.16;2054108;28;20031;-66
2021/03/22 03:15:20;;;;;;;12.93;11.38;;;;;;;20.88;42.08;100112.94;2056152;28;20071;-66
2021/03/22 03:16:20;;;;;;;12.82;11.27;;;;;;;20.88;42.04;100107.47;2055389;28;20040;-66
2021/03/22 03:17:23;;;;;;;11.93;10.47;;;;;;;20.87;42.03;100111.22;2056360;28;20019;-66
2021/03/22 03:18:23;;;;;;;12.60;11.25;;;;;;;20.87;42.03;100118.56;2055727;28;20030;-66
2021/03/22 03:19:24;;;;;;;12.20;10.43;;;;;;;20.87;42.01;100113.97;2053957;28;20062;-66
2021/03/22 03:20:29;;;;;;;11.70;9.80;;;;;;;20.87;42.12;100115.81;2055507;28;20032;-66
2021/03/22 03:21:30;;;;;;;13.35;9.63;;;;;;;20.87;42.17;100110.34;2056345;28;20042;-66
2021/03/22 03:22:31;;;;;;;13.47;10.53;;;;;;;20.87;42.25;100111.22;2056332;28;20043;-66
2021/03/22 03:23:31;;;;;;;12.67;10.70;;;;;;;20.85;41.98;100102.31;2063166;28;20030;-66
2021/03/22 03:24:32;;;;;;;11.97;10.27;;;;;;;20.85;42.07;100096.84;2063396;28;20162;-66
2021/03/22 03:25:33;;;;;;;13.45;10.65;;;;;;;20.86;41.98;100098.53;2055509;28;20034;-66
2021/03/22 03:26:33;;;;;;;12.70;10.30;;;;;;;20.84;42.28;100099.72;2056109;28;20553;-66
2021/03/22 03:27:34;;;;;;;11.63;10.43;;;;;;;20.85;42.15;100109.66;2056394;28;20065;-66
2021/03/22 03:28:35;;;;;;;11.87;10.47;;;;;;;20.85;42.27;100106.91;2055197;28;20066;-66
2021/03/22 03:29:36;;;;;;;11.57;10.33;;;;;;;20.87;41.94;100104.88;2056186;28;20027;-66
2021/03/22 03:30:39;;;;;;;12.40;10.63;;;;;;;20.84;42.02;100106.06;2055793;28;20027;-64
2021/03/22 03:31:39;;;;;;;13.40;11.30;;;;;;;20.83;42.14;100108.97;2055845;28;20085;-66
2021/03/22 03:32:40;;;;;;;13.70;11.43;;;;;;;20.83;42.21;100101.59;2053398;28;20108;-66
2021/03/22 03:33:40;;;;;;;11.00;9.87;;;;;;;20.83;42.22;100106.22;2056170;28;20114;-66
2021/03/22 03:34:41;;;;;;;12.77;10.73;;;;;;;20.82;42.32;100101.75;2054833;28;20026;-65
2021/03/22 03:35:44;;;;;;;15.27;11.00;;;;;;;20.81;42.39;100100.06;2055345;28;20680;-66
2021/03/22 03:36:44;;;;;;;12.40;10.68;;;;;;;20.81;42.29;100098.16;2055669;28;20049;-63
2021/03/22 03:37:44;;;;;;;12.20;10.43;;;;;;;20.80;42.21;100107.41;2052254;28;20130;-64
2021/03/22 03:38:45;;;;;;;11.50;10.30;;;;;;;20.81;42.47;100111.00;2054973;28;20042;-64
2021/03/22 03:39:47;;;;;;;11.10;9.67;;;;;;;20.79;42.35;100113.91;2054826;28;20035;-64
2021/03/22 03:40:48;;;;;;;10.82;9.73;;;;;;;20.78;42.25;100101.22;2055867;28;20109;-64
2021/03/22 03:41:49;;;;;;;12.77;10.73;;;;;;;20.79;42.30;100091.97;2055842;28;20034;-64
2021/03/22 03:42:49;;;;;;;13.67;10.13;;;;;;;20.77;42.29;100099.50;2055817;28;20031;-64
2021/03/22 03:43:50;;;;;;;11.23;10.03;;;;;;;20.77;42.44;100099.50;2055685;28;20038;-64
2021/03/22 03:44:50;;;;;;;12.97;10.00;;;;;;;20.75;42.34;100094.19;2054110;28;20050;-64
2021/03/22 03:45:52;;;;;;;14.20;11.13;;;;;;;20.76;42.37;100103.28;2058190;28;20026;-64
2021/03/22 03:46:52;;;;;;;;;;;;;;;20.74;42.29;100099.81;2056667;28;20023;-64
2021/03/22 03:47:53;;;;;;;11.48;9.90;;;;;;;20.74;42.35;100094.34;2056081;28;20428;-64
2021/03/22 03:48:53;;;;;;;11.77;10.37;;;;;;;20.75;42.36;100096.09;2056352;28;20051;-64
2021/03/22 03:49:54;;;;;;;11.63;9.73;;;;;;;20.74;42.49;100095.19;2056808;28;20026;-64
2021/03/22 03:50:57;;;;;;;11.40;9.93;;;;;;;20.73;42.44;100093.50;2055541;28;20031;-64
2021/03/22 03:51:57;;;;;;;11.23;10.02;;;;;;;20.73;42.12;100098.13;2055938;28;20030;-64
2021/03/22 03:52:59;;;;;;;13.17;10.30;;;;;;;20.72;42.38;100093.66;2055450;28;20113;-64
2021/03/22 03:53:59;;;;;;;11.25;10.15;;;;;;;20.72;42.47;100097.25;2051003;28;20453;-64
2021/03/22 03:55:00;;;;;;;12.30;9.87;;;;;;;20.71;42.43;100094.69;2054915;28;20378;-64
2021/03/22 03:56:01;;;;;;;12.50;10.10;;;;;;;20.71;42.62;100091.94;2053473;28;20433;-64
2021/03/22 03:57:02;;;;;;;13.27;10.35;;;;;;;20.69;42.40;100094.81;2053457;28;20035;-64
2021/03/22 03:58:03;;;;;;;12.38;10.32;;;;;;;20.69;42.53;100088.50;2055132;28;20049;-64
2021/03/22 03:59:06;;;;;;;12.30;10.15;;;;;;;20.69;42.46;100100.31;2054999;28;20458;-64
2021/03/22 04:00:12;;;;;;;12.27;10.35;;;;;;;20.69;42.46;100096.72;2054341;28;20456;-64
2021/03/22 04:01:12;;;;;;;12.65;9.77;;;;;;;20.68;42.54;100098.59;2055921;28;20027;-64
2021/03/22 04:02:13;;;;;;;11.90;9.57;;;;;;;20.69;42.40;100102.19;2051345;28;20034;-64
2021/03/22 04:03:32;;;;;;;11.00;9.43;;;;;;;20.67;42.63;100098.75;2055622;28;20023;-64
2021/03/22 04:04:33;;;;;;;11.55;10.07;;;;;;;20.66;42.54;100099.78;2059434;28;20027;-64
2021/03/22 04:05:33;;;;;;;11.47;10.10;;;;;;;20.65;42.47;100101.66;2056053;28;20023;-64
2021/03/22 04:06:34;;;;;;;11.37;9.90;;;;;;;20.65;42.55;100106.25;2055458;28;20104;-64
2021/03/22 04:07:35;;;;;;;12.40;9.90;;;;;;;20.65;42.47;100109.88;2056015;28;20050;-64
2021/03/22 04:08:40;;;;;;;10.57;9.10;;;;;;;20.64;42.58;100110.03;2055997;28;20046;-64
2021/03/22 04:09:40;;;;;;;11.50;10.20;;;;;;;20.63;42.49;100103.69;2055573;28;20031;-64
2021/03/22 04:10:41;;;;;;;12.60;9.83;;;;;;;20.62;42.43;100112.06;2060172;28;20604;-64
2021/03/22 04:11:47;;;;;;;11.43;10.10;;;;;;;20.61;42.56;100104.88;2055714;28;20038;-64
2021/03/22 04:12:47;;;;;;;12.02;9.50;;;;;;;20.61;42.59;100110.34;2055027;28;20490;-64
2021/03/22 04:13:47;;;;;;;10.70;9.43;;;;;;;20.61;42.59;100104.88;2056280;28;20086;-64
2021/03/22 04:14:48;;;;;;;12.17;9.47;;;;;;;20.60;42.40;100108.63;2053460;28;20079;-64
2021/03/22 04:15:49;;;;;;;11.97;9.97;;;;;;;20.61;42.50;100113.09;2054742;28;20023;-64
2021/03/22 04:16:50;;;;;;;11.63;9.85;;;;;;;20.60;42.46;100111.34;2055331;28;20027;-64
2021/03/22 04:17:51;;;;;;;10.93;9.52;;;;;;;20.58;42.54;100107.91;2055985;28;20035;-64
2021/03/22 04:18:52;;;;;;;11.73;10.17;;;;;;;20.59;42.64;100112.38;2056341;28;20029;-64
2021/03/22 04:19:52;;;;;;;10.37;9.30;;;;;;;20.58;42.54;100111.53;2055210;28;20031;-64
2021/03/22 04:20:53;;;;;;;11.50;9.00;;;;;;;20.56;42.69;100108.09;2055861;28;20035;-64
2021/03/22 04:21:53;;;;;;;11.43;9.40;;;;;;;20.55;42.65;100115.44;2055205;28;20400;-64
2021/03/22 04:22:54;;;;;;;9.70;8.60;;;;;;;20.54;42.65;100116.41;2055570;28;20034;-64
2021/03/22 04:23:56;;;;;;;11.07;9.73;;;;;;;20.54;42.64;100110.09;2057737;28;20401;-64
2021/03/22 04:24:57;;;;;;;10.60;9.43;;;;;;;20.54;42.75;100118.31;2057347;28;20536;-64
2021/03/22 04:25:57;;;;;;;11.27;9.93;;;;;;;20.52;42.79;100110.25;2057698;28;20393;-64
2021/03/22 04:26:58;;;;;;;10.60;9.20;;;;;;;20.53;42.72;100113.88;2056773;28;20082;-64
2021/03/22 04:27:59;;;;;;;10.10;9.00;;;;;;;20.52;42.74;100112.13;2056249;28;20066;-64
2021/03/22 04:29:00;;;;;;;11.57;9.80;;;;;;;20.50;42.75;100125.97;2057716;28;20027;-64
2021/03/22 04:30:08;;;;;;;10.93;9.77;;;;;;;20.50;42.74;100116.91;2057203;28;20104;-64
2021/03/22 04:31:14;;;;;;;10.80;9.35;;;;;;;20.49;42.84;100112.44;2052993;28;20050;-66
2021/03/22 04:32:14;;;;;;;12.02;9.38;;;;;;;20.48;42.82;100122.56;2059262;28;20440;-66
2021/03/22 04:33:15;;;;;;;10.10;8.80;;;;;;;20.49;42.65;100124.25;2057795;28;20023;-66
2021/03/22 04:34:15;;;;;;;11.63;9.17;;;;;;;20.48;42.83;100122.56;2055970;28;20019;-66
2021/03/22 04:35:18;;;;;;;12.13;9.60;;;;;;;20.49;42.67;100117.94;2054996;28;20057;-64
2021/03/22 04:36:22;;;;;;;10.88;9.77;;;;;;;20.48;42.76;100122.56;2054246;28;20505;-64
2021/03/22 04:37:22;;;;;;;9.82;8.68;;;;;;;20.47;42.85;100120.81;2055835;28;20026;-64
2021/03/22 04:38:23;;;;;;;11.27;9.13;;;;;;;20.45;42.74;100120.09;2056006;28;20113;-64
2021/03/22 04:39:23;;;;;;;10.50;8.83;;;;;;;20.45;42.96;100117.38;2057461;28;20129;-64
2021/03/22 04:40:26;;;;;;;9.13;8.03;;;;;;;20.46;42.79;100112.78;2057288;28;20513;-64
2021/03/22 04:41:27;;;;;;;10.18;8.90;;;;;;;20.45;42.79;100106.41;2057044;28;20030;-64
2021/03/22 04:42:27;;;;;;;10.07;8.73;;;;;;;20.43;42.74;100108.47;2056704;28;20498;-64
2021/03/22 04:43:29;;;;;;;10.53;8.70;;;;;;;20.44;42.78;100107.44;2056819;28;20421;-64
2021/03/22 04:44:29;;;;;;;12.07;9.50;;;;;;;20.46;42.92;100108.16;2053932;28;20135;-64
2021/03/22 04:45:30;;;;;;;9.87;8.80;;;;;;;20.46;42.90;100105.41;2055570;28;20625;-64
2021/03/22 04:46:31;;;;;;;16.05;10.00;;;;;;;20.47;42.78;100106.25;2050778;28;20031;-64
2021/03/22 04:47:32;;;;;;;10.57;8.80;;;;;;;20.47;42.80;100112.59;2055215;28;20030;-64
2021/03/22 04:48:32;;;;;;;9.67;8.23;;;;;;;20.48;42.63;100110.72;2056866;28;20057;-64
2021/03/22 04:49:33;;;;;;;10.60;9.07;;;;;;;20.48;42.77;100111.59;2059467;28;20027;-64
2021/03/22 04:50:33;;;;;;;11.97;9.47;;;;;;;20.48;42.76;100111.59;2058705;28;20118;-64
2021/03/22 04:51:34;;;;;;;9.53;8.47;;;;;;;20.47;42.77;100120.81;2054699;28;20029;-64
2021/03/22 04:52:34;;;;;;;9.57;8.57;;;;;;;20.49;42.85;100116.03;2058333;28;20026;-64
2021/03/22 04:53:35;;;;;;;10.57;8.90;;;;;;;20.48;42.74;100122.56;2059679;28;20033;-64